Time;durP1;ratioP1;P1;durP2;ratioP2;P2;SDS_P1;SDS_P2;PMS_P1;PMS_P2;Temp;Humidity;BMP_temperature;BMP_pressure;BME280_temperature;BME280_humidity;BME280_pressure;Samples;Min_cycle;Max_cycle;Signal;HPM_P1;HPM_P2
2022/05/15 00:02:45;;;;;;;8.40;4.10;;;20.90;50.60;;;;;;4974371;28;20638;-62
2022/05/15 00:05:13;;;;;;;8.02;3.42;;;20.90;50.40;;;;;;4974092;28;20586;-62
2022/05/15 00:07:41;;;;;;;5.97;3.33;;;20.90;50.70;;;;;;4975596;28;20545;-62
2022/05/15 00:10:09;;;;;;;7.70;3.75;;;20.90;50.70;;;;;;4974087;28;20218;-63
2022/05/15 00:12:36;;;;;;;10.60;3.70;;;20.90;51.00;;;;;;4974310;28;20217;-62
2022/05/15 00:15:04;;;;;;;6.72;3.95;;;20.90;50.90;;;;;;4975418;28;20193;-61
2022/05/15 00:17:32;;;;;;;7.88;3.40;;;20.90;51.00;;;;;;4975268;28;20218;-62
2022/05/15 00:19:59;;;;;;;5.35;3.22;;;20.90;51.00;;;;;;4975225;28;20244;-62
2022/05/15 00:22:54;;;;;;;5.03;3.17;;;20.80;50.90;;;;;;4974212;28;20308;-62
2022/05/15 00:25:46;;;;;;;5.35;2.97;;;20.80;50.90;;;;;;4975404;28;20189;-63
2022/05/15 00:28:13;;;;;;;5.60;3.33;;;20.80;51.00;;;;;;4973745;28;20234;-62
2022/05/15 00:30:41;;;;;;;7.07;3.15;;;20.80;50.90;;;;;;4973765;28;20708;-62
2022/05/15 00:33:08;;;;;;;4.53;3.30;;;20.80;50.90;;;;;;4973894;28;20232;-62
2022/05/15 00:35:37;;;;;;;4.78;3.28;;;20.80;51.10;;;;;;4975046;28;20692;-62
2022/05/15 00:38:05;;;;;;;5.00;3.10;;;20.80;51.10;;;;;;4974752;28;20228;-62
2022/05/15 00:40:34;;;;;;;4.50;3.17;;;20.80;52.60;;;;;;4973505;28;20209;-62
2022/05/15 00:43:01;;;;;;;6.30;3.70;;;20.80;53.20;;;;;;4973392;28;20337;-62
2022/05/15 00:45:28;;;;;;;4.60;3.30;;;20.80;53.20;;;;;;4973317;28;20292;-62
2022/05/15 00:47:55;;;;;;;4.75;3.65;;;20.80;53.30;;;;;;4973482;28;20194;-62
2022/05/15 00:50:23;;;;;;;4.82;2.90;;;20.80;53.50;;;;;;4975362;28;20194;-62
2022/05/15 00:52:52;;;;;;;4.68;3.25;;;20.70;53.40;;;;;;4973403;28;20218;-62
2022/05/15 00:55:22;;;;;;;5.05;3.08;;;20.70;53.10;;;;;;4972586;28;20237;-62
2022/05/15 00:57:55;;;;;;;6.18;3.28;;;20.80;53.30;;;;;;4973350;28;20198;-62
2022/05/15 01:00:23;;;;;;;3.50;2.97;;;20.80;53.20;;;;;;4973111;28;20578;-62
2022/05/15 01:02:53;;;;;;;6.00;3.50;;;20.70;53.00;;;;;;4973483;28;20241;-62
2022/05/15 01:05:20;;;;;;;4.30;3.00;;;20.70;53.00;;;;;;4973152;28;20202;-62
2022/05/15 01:07:47;;;;;;;4.38;3.20;;;20.70;53.00;;;;;;4973323;28;20221;-62
2022/05/15 01:10:14;;;;;;;4.93;2.85;;;20.80;52.90;;;;;;4974734;28;20245;-62
2022/05/15 01:12:44;;;;;;;4.30;3.17;;;20.70;52.90;;;;;;4973585;28;20740;-62
2022/05/15 01:15:18;;;;;;;5.25;3.33;;;20.70;53.00;;;;;;4974167;28;20607;-62
2022/05/15 01:17:46;;;;;;;3.97;2.90;;;20.70;52.80;;;;;;4973507;28;20198;-62
2022/05/15 01:20:15;;;;;;;3.65;2.85;;;20.70;52.80;;;;;;4974341;28;20260;-62
2022/05/15 01:22:44;;;;;;;3.60;3.20;;;20.70;52.90;;;;;;4972883;28;20209;-62
2022/05/15 01:25:14;;;;;;;3.85;2.92;;;20.70;52.60;;;;;;4973050;28;20574;-62
2022/05/15 01:27:43;;;;;;;4.22;2.95;;;20.70;52.50;;;;;;4973275;28;20208;-62
2022/05/15 01:30:11;;;;;;;3.25;2.95;;;20.70;52.60;;;;;;4973246;28;20245;-62
2022/05/15 01:32:38;;;;;;;2.97;2.70;;;20.70;52.60;;;;;;4974218;28;20214;-62
2022/05/15 01:35:06;;;;;;;3.70;2.97;;;20.60;52.50;;;;;;4973476;28;20281;-62
2022/05/15 01:37:34;;;;;;;4.53;3.00;;;20.60;52.20;;;;;;4973312;28;20225;-62
2022/05/15 01:40:03;;;;;;;5.15;3.50;;;20.60;52.40;;;;;;4973166;28;20221;-62
2022/05/15 01:42:31;;;;;;;4.18;3.17;;;20.60;52.50;;;;;;4973429;28;20250;-62
2022/05/15 01:44:58;;;;;;;2.88;2.42;;;20.60;52.20;;;;;;4973303;28;20206;-62
2022/05/15 01:47:25;;;;;;;4.38;2.80;;;20.60;52.30;;;;;;4973042;28;20761;-62
2022/05/15 01:49:52;;;;;;;3.58;2.90;;;20.60;52.50;;;;;;4974800;28;20202;-63
2022/05/15 01:52:19;;;;;;;3.40;3.00;;;20.60;52.50;;;;;;4973677;28;20572;-62
2022/05/15 01:54:47;;;;;;;3.83;2.72;;;20.50;52.40;;;;;;4973065;28;20692;-62
2022/05/15 01:57:15;;;;;;;4.80;2.95;;;20.50;52.50;;;;;;4973023;28;20198;-62
2022/05/15 01:59:42;;;;;;;3.85;2.75;;;20.50;52.50;;;;;;4972953;28;20209;-62
2022/05/15 02:02:10;;;;;;;5.15;2.88;;;20.50;52.30;;;;;;4972717;28;20249;-62
2022/05/15 02:04:38;;;;;;;3.90;2.75;;;20.50;52.40;;;;;;4972756;28;20229;-62
2022/05/15 02:07:06;;;;;;;3.63;2.92;;;20.40;52.30;;;;;;4974088;28;20205;-62
2022/05/15 02:09:33;;;;;;;3.53;3.00;;;20.40;52.40;;;;;;4976320;28;20198;-62
2022/05/15 02:14:44;;;;;;;4.75;3.05;;;20.40;52.20;;;;;;5028141;23;20233;-68
2022/05/15 02:17:11;;;;;;;4.28;3.10;;;20.40;52.10;;;;;;4992260;28;20254;-68
2022/05/15 02:19:38;;;;;;;4.32;3.20;;;20.40;52.40;;;;;;4976189;28;20600;-68
2022/05/15 02:22:05;;;;;;;4.82;3.15;;;20.40;52.40;;;;;;4976271;28;20190;-67
2022/05/15 02:24:33;;;;;;;3.58;3.17;;;20.40;52.40;;;;;;4976234;28;20269;-68
2022/05/15 02:27:01;;;;;;;4.15;3.20;;;20.30;52.20;;;;;;4976133;28;20273;-68
2022/05/15 02:29:28;;;;;;;5.07;2.80;;;20.30;52.10;;;;;;4976075;28;20204;-68
2022/05/15 02:31:57;;;;;;;4.03;3.17;;;20.30;52.30;;;;;;4975678;28;20241;-68
2022/05/15 02:34:24;;;;;;;3.92;3.00;;;20.30;52.10;;;;;;4975791;28;20217;-68
2022/05/15 02:36:51;;;;;;;3.88;3.10;;;20.30;51.90;;;;;;4975750;28;20665;-68
2022/05/15 02:39:18;;;;;;;3.10;2.80;;;20.30;52.30;;;;;;4975583;28;20202;-68
2022/05/15 02:41:45;;;;;;;3.55;3.20;;;20.30;51.90;;;;;;4977018;28;20190;-68
2022/05/15 02:44:12;;;;;;;4.88;3.30;;;20.30;52.10;;;;;;4975643;28;20249;-68
2022/05/15 02:46:39;;;;;;;3.55;3.25;;;20.30;52.10;;;;;;4975883;28;20202;-68
2022/05/15 02:51:53;;;;;;;3.53;3.00;;;20.20;51.80;;;;;;4975574;28;20296;-68
2022/05/15 02:54:20;;;;;;;3.50;2.97;;;20.20;51.80;;;;;;4975874;28;20202;-68
2022/05/15 02:56:47;;;;;;;3.30;3.00;;;20.20;51.80;;;;;;4975410;28;20200;-69
2022/05/15 02:59:14;;;;;;;3.30;3.00;;;20.20;51.70;;;;;;4975362;28;20207;-68
2022/05/15 03:01:41;;;;;;;3.20;2.90;;;20.20;51.60;;;;;;4975448;28;20289;-68
2022/05/15 03:04:09;;;;;;;3.25;2.72;;;20.20;51.80;;;;;;4975215;28;20202;-67
2022/05/15 03:06:36;;;;;;;3.78;2.83;;;20.10;51.40;;;;;;4976103;28;20205;-68
2022/05/15 03:09:04;;;;;;;3.22;2.80;;;20.10;51.70;;;;;;4975214;28;20221;-68
2022/05/15 03:11:32;;;;;;;3.75;3.00;;;20.10;51.80;;;;;;4975387;28;20218;-68
2022/05/15 03:13:59;;;;;;;2.80;2.60;;;20.10;52.20;;;;;;4975006;28;20207;-68
2022/05/15 03:16:28;;;;;;;3.10;2.80;;;20.10;51.70;;;;;;4975221;28;20198;-67
2022/05/15 03:18:55;;;;;;;3.47;2.80;;;20.10;51.80;;;;;;4974268;28;20717;-68
2022/05/15 03:21:30;;;;;;;3.53;2.85;;;20.10;51.70;;;;;;4975098;28;20229;-68
2022/05/15 03:23:59;;;;;;;3.60;2.80;;;20.10;51.50;;;;;;4975155;28;20196;-68
2022/05/15 03:26:27;;;;;;;3.78;2.60;;;20.10;51.70;;;;;;4975097;28;20197;-68
2022/05/15 03:28:54;;;;;;;2.92;2.72;;;20.10;51.80;;;;;;4975093;28;20650;-68
2022/05/15 03:31:21;;;;;;;3.08;2.75;;;20.20;52.10;;;;;;4974896;28;20190;-68
2022/05/15 03:33:49;;;;;;;3.80;2.80;;;20.20;52.10;;;;;;4975114;28;20205;-68
2022/05/15 03:36:16;;;;;;;3.15;2.85;;;20.30;52.00;;;;;;4974988;28;20194;-67
2022/05/15 03:38:46;;;;;;;3.22;2.75;;;20.30;51.70;;;;;;4974988;28;20294;-68
2022/05/15 03:41:13;;;;;;;2.80;2.60;;;20.40;51.60;;;;;;4975207;28;20198;-68
2022/05/15 03:43:40;;;;;;;4.28;2.53;;;20.40;51.40;;;;;;4975223;28;20198;-68
2022/05/15 03:46:08;;;;;;;2.72;2.53;;;20.50;51.50;;;;;;4976215;28;20685;-67
2022/05/15 03:48:35;;;;;;;3.05;2.75;;;20.50;51.30;;;;;;4974941;28;20261;-68
2022/05/15 03:51:03;;;;;;;3.47;2.67;;;20.50;51.00;;;;;;4975004;28;20198;-67
2022/05/15 03:53:31;;;;;;;2.60;2.40;;;20.60;51.10;;;;;;4974804;28;20210;-68
2022/05/15 03:55:59;;;;;;;3.30;2.85;;;20.60;50.90;;;;;;4974560;28;20194;-68
2022/05/15 03:58:28;;;;;;;3.90;2.80;;;20.60;50.90;;;;;;4974481;28;20222;-68
2022/05/15 04:00:55;;;;;;;2.72;2.53;;;20.70;50.80;;;;;;4974690;28;20230;-68
2022/05/15 04:03:23;;;;;;;2.70;2.50;;;20.70;50.80;;;;;;4974733;28;20226;-68
2022/05/15 04:05:50;;;;;;;3.92;2.63;;;20.70;50.80;;;;;;4975790;28;20269;-68
2022/05/15 04:08:17;;;;;;;2.83;2.63;;;20.70;50.50;;;;;;4975292;28;20226;-68
2022/05/15 04:10:44;;;;;;;2.70;2.30;;;20.70;50.60;;;;;;4984551;28;20671;-68
2022/05/15 04:13:13;;;;;;;3.05;2.45;;;20.70;50.80;;;;;;4974091;28;20218;-68
2022/05/15 04:15:40;;;;;;;3.40;2.33;;;20.70;50.40;;;;;;4974105;28;20556;-68
2022/05/15 04:18:09;;;;;;;2.70;2.50;;;20.70;50.40;;;;;;4974000;28;20214;-68
2022/05/15 04:20:36;;;;;;;2.85;2.40;;;20.70;50.30;;;;;;4974045;28;20206;-68
2022/05/15 04:23:03;;;;;;;2.90;2.60;;;20.70;50.40;;;;;;4974088;28;20201;-68
2022/05/15 04:25:30;;;;;;;2.80;2.60;;;20.70;50.20;;;;;;4973905;28;20198;-68
2022/05/15 04:27:59;;;;;;;3.20;2.58;;;20.70;50.30;;;;;;4974006;28;20630;-68
2022/05/15 04:30:28;;;;;;;2.85;2.53;;;20.70;50.20;;;;;;4973686;28;20284;-68
2022/05/15 04:32:55;;;;;;;2.35;2.15;;;20.70;50.80;;;;;;4973647;28;20225;-68
2022/05/15 04:35:23;;;;;;;2.40;2.20;;;20.70;50.10;;;;;;4975097;28;20194;-68
2022/05/15 04:37:51;;;;;;;2.67;2.40;;;20.70;50.20;;;;;;4974939;28;20217;-68
2022/05/15 04:40:19;;;;;;;2.83;2.50;;;20.70;50.20;;;;;;4974579;28;20256;-68
2022/05/15 04:42:46;;;;;;;3.50;2.65;;;20.70;50.40;;;;;;4975872;28;20205;-68
2022/05/15 04:45:13;;;;;;;2.65;2.45;;;20.70;50.90;;;;;;4975593;28;20198;-67
2022/05/15 04:47:41;;;;;;;2.75;2.40;;;20.90;50.20;;;;;;4974814;28;20317;-68
2022/05/15 04:50:10;;;;;;;2.30;2.10;;;21.00;50.00;;;;;;4973617;28;20253;-68
2022/05/15 04:52:36;;;;;;;3.53;2.55;;;21.20;50.30;;;;;;4975457;28;20245;-69
2022/05/15 04:55:04;;;;;;;4.18;2.65;;;21.40;49.10;;;;;;4975268;28;20685;-68
2022/05/15 04:57:31;;;;;;;3.00;2.42;;;21.60;48.70;;;;;;4973836;28;20217;-68
2022/05/15 04:59:58;;;;;;;3.63;2.75;;;21.70;48.20;;;;;;4974425;28;20284;-70
2022/05/15 05:02:25;;;;;;;2.67;2.47;;;21.90;47.60;;;;;;4975127;28;20190;-70
2022/05/15 05:04:53;;;;;;;3.67;2.47;;;22.00;46.00;;;;;;4975792;28;20198;-70
2022/05/15 05:07:20;;;;;;;2.78;2.50;;;22.10;45.40;;;;;;4975013;28;20218;-71
2022/05/15 05:09:47;;;;;;;4.18;3.05;;;22.10;44.80;;;;;;4973849;28;20198;-70
2022/05/15 05:12:14;;;;;;;3.08;2.60;;;22.00;44.70;;;;;;4973414;28;20249;-70
2022/05/15 05:14:41;;;;;;;2.97;2.63;;;22.00;44.40;;;;;;4973472;28;20202;-70
2022/05/15 05:17:08;;;;;;;3.92;2.90;;;22.00;44.40;;;;;;4973590;28;20226;-69
2022/05/15 05:19:35;;;;;;;5.90;2.80;;;22.10;44.40;;;;;;4974169;28;20584;-70
2022/05/15 05:22:04;;;;;;;4.10;3.10;;;22.10;44.50;;;;;;4974555;28;20198;-71
2022/05/15 05:24:31;;;;;;;3.30;3.00;;;22.20;44.50;;;;;;4973949;28;20202;-73
2022/05/15 05:26:58;;;;;;;3.10;2.80;;;22.20;44.30;;;;;;4973572;28;20197;-71
2022/05/15 05:29:26;;;;;;;3.03;2.70;;;22.20;44.70;;;;;;4973858;28;20293;-71
2022/05/15 05:31:53;;;;;;;3.78;2.70;;;22.30;44.50;;;;;;4974894;28;20209;-70
2022/05/15 05:34:20;;;;;;;3.47;3.10;;;22.40;44.30;;;;;;4973116;28;20197;-70
2022/05/15 05:36:47;;;;;;;6.93;3.63;;;22.30;44.60;;;;;;4974399;28;20196;-72
2022/05/15 05:39:17;;;;;;;3.35;2.47;;;22.40;44.50;;;;;;4973503;28;20285;-70
2022/05/15 05:41:44;;;;;;;15.05;5.82;;;22.50;44.60;;;;;;4975163;28;20190;-69
2022/05/15 05:44:11;;;;;;;36.97;13.85;;;22.70;44.60;;;;;;4976919;28;20198;-68
2022/05/15 05:46:39;;;;;;;108.47;37.58;;;23.00;44.60;;;;;;4979242;28;20202;-71
2022/05/15 05:49:06;;;;;;;92.35;37.58;;;23.20;44.80;;;;;;4978445;28;20245;-68
2022/05/15 05:51:33;;;;;;;114.28;41.45;;;23.40;45.70;;;;;;4977432;28;20309;-71
2022/05/15 05:54:00;;;;;;;123.93;44.40;;;23.60;45.70;;;;;;4977328;28;20762;-70
2022/05/15 05:56:28;;;;;;;95.93;41.08;;;23.80;45.40;;;;;;4977876;28;20202;-71
2022/05/15 05:58:56;;;;;;;88.53;34.53;;;24.00;45.10;;;;;;4979454;28;20217;-70
2022/05/15 06:01:22;;;;;;;91.00;35.55;;;24.10;44.80;;;;;;4979985;28;20667;-69
2022/05/15 06:06:50;;;;;;;84.43;31.35;;;24.50;44.80;;;;;;4980869;28;20273;-70
2022/05/15 06:11:46;;;;;;;72.53;30.73;;;24.70;44.10;;;;;;4975685;28;20222;-62
2022/05/15 06:14:13;;;;;;;67.65;28.25;;;24.80;44.00;;;;;;4976987;28;20217;-62
2022/05/15 06:16:40;;;;;;;50.55;23.17;;;24.90;43.80;;;;;;4975906;28;20240;-61
2022/05/15 06:19:08;;;;;;;66.43;29.52;;;25.00;44.20;;;;;;4977583;28;20194;-62
2022/05/15 06:21:35;;;;;;;67.05;28.05;;;25.00;43.80;;;;;;4977245;28;20222;-62
2022/05/15 06:24:02;;;;;;;71.28;26.67;;;25.10;43.80;;;;;;4975911;28;20628;-61
2022/05/15 06:26:29;;;;;;;53.33;23.38;;;25.10;43.80;;;;;;4976942;28;20216;-62
2022/05/15 06:28:59;;;;;;;42.15;19.80;;;25.20;43.80;;;;;;4975770;28;20217;-62
2022/05/15 06:31:26;;;;;;;48.40;20.63;;;25.30;43.50;;;;;;4976980;28;20214;-62
2022/05/15 06:33:53;;;;;;;44.65;19.95;;;25.30;43.20;;;;;;4975493;28;20233;-62
2022/05/15 06:36:20;;;;;;;43.75;19.15;;;25.40;43.70;;;;;;4976889;28;20252;-62
2022/05/15 06:38:47;;;;;;;43.25;19.60;;;25.50;42.80;;;;;;4976995;28;20273;-62
2022/05/15 06:41:14;;;;;;;43.00;18.23;;;25.50;42.70;;;;;;4975712;28;20668;-62
2022/05/15 06:43:42;;;;;;;36.40;17.83;;;25.60;42.50;;;;;;4977223;28;20202;-62
2022/05/15 06:46:10;;;;;;;36.38;17.40;;;25.60;42.30;;;;;;4976823;28;20277;-61
2022/05/15 06:48:38;;;;;;;40.17;17.20;;;25.70;42.40;;;;;;4976953;28;20265;-62
2022/05/15 06:51:05;;;;;;;41.08;17.38;;;25.80;42.20;;;;;;4975261;28;20209;-62
2022/05/15 06:53:33;;;;;;;33.65;16.13;;;25.90;42.20;;;;;;4973941;28;20234;-62
2022/05/15 06:58:44;;;;;;;36.20;14.85;;;26.00;42.20;;;;;;4976597;28;20178;-62
2022/05/15 07:01:13;;;;;;;37.17;15.05;;;26.00;42.10;;;;;;4975187;28;20208;-62
2022/05/15 07:03:40;;;;;;;31.67;13.77;;;26.10;42.10;;;;;;4975444;28;20225;-62
2022/05/15 07:06:07;;;;;;;29.45;14.20;;;26.10;41.60;;;;;;4976931;28;20194;-62
2022/05/15 07:08:34;;;;;;;29.23;12.57;;;26.20;41.60;;;;;;4984575;28;20233;-63
2022/05/15 07:11:01;;;;;;;26.30;11.95;;;26.20;41.40;;;;;;4991414;28;20209;-65
2022/05/15 07:13:29;;;;;;;29.17;12.82;;;26.30;42.00;;;;;;4983326;28;20214;-63
2022/05/15 07:15:56;;;;;;;24.02;11.45;;;26.30;41.40;;;;;;4975059;28;20575;-62
2022/05/15 07:18:25;;;;;;;27.25;12.20;;;26.30;42.00;;;;;;4976483;28;20531;-62
2022/05/15 07:20:52;;;;;;;23.40;11.50;;;26.40;41.00;;;;;;4974921;28;20692;-62
2022/05/15 07:23:19;;;;;;;25.38;11.00;;;26.40;40.90;;;;;;4974724;28;20697;-62
2022/05/15 07:25:46;;;;;;;23.33;10.90;;;26.50;40.70;;;;;;4974710;28;20295;-62
2022/05/15 07:28:14;;;;;;;27.88;11.15;;;26.60;40.50;;;;;;4974746;28;20206;-62
2022/05/15 07:30:41;;;;;;;25.70;10.25;;;26.60;40.80;;;;;;4974702;28;20324;-62
2022/05/15 07:33:08;;;;;;;23.63;10.00;;;26.70;40.10;;;;;;4974443;28;20293;-63
2022/05/15 07:35:36;;;;;;;23.25;9.88;;;26.70;40.00;;;;;;4974472;28;20253;-63
2022/05/15 07:38:04;;;;;;;22.05;9.88;;;26.80;40.50;;;;;;4975701;28;20194;-62
2022/05/15 07:40:31;;;;;;;23.02;9.15;;;26.80;40.40;;;;;;4976084;28;20198;-63
2022/05/15 07:42:58;;;;;;;18.95;9.30;;;26.80;39.70;;;;;;4976738;28;20289;-62
2022/05/15 07:45:25;;;;;;;20.42;9.60;;;26.90;39.70;;;;;;4975591;28;20198;-62
2022/05/15 07:47:53;;;;;;;21.75;9.75;;;27.00;39.70;;;;;;4974402;28;20202;-63
2022/05/15 07:50:19;;;;;;;20.35;8.75;;;26.90;39.60;;;;;;4974477;28;20194;-63
2022/05/15 07:52:48;;;;;;;17.92;9.20;;;26.90;39.60;;;;;;4974259;28;20621;-63
2022/05/15 07:55:16;;;;;;;20.00;8.45;;;26.90;39.70;;;;;;4976147;28;20210;-62
2022/05/15 07:57:43;;;;;;;20.00;8.02;;;26.90;39.50;;;;;;4976165;28;20194;-63
2022/05/15 08:00:14;;;;;;;19.13;8.40;;;26.90;39.50;;;;;;4974392;28;20202;-63
2022/05/15 08:02:41;;;;;;;19.05;8.15;;;26.90;39.60;;;;;;4975714;28;20220;-63
2022/05/15 08:08:01;;;;;;;16.02;7.90;;;27.00;39.50;;;;;;4973971;28;20196;-63
2022/05/15 08:10:29;;;;;;;18.30;8.82;;;27.10;39.50;;;;;;4975291;28;20256;-63
2022/05/15 08:12:56;;;;;;;13.68;7.57;;;27.10;39.50;;;;;;4973862;28;20693;-63
2022/05/15 08:15:24;;;;;;;17.35;8.00;;;27.10;39.20;;;;;;4974010;28;20611;-63
2022/05/15 08:17:51;;;;;;;16.27;7.45;;;27.20;39.20;;;;;;4973799;28;20197;-62
2022/05/15 08:25:49;;;;;;;18.13;8.27;;;27.30;39.10;;;;;;4975043;28;20182;-62
2022/05/15 08:28:16;;;;;;;17.67;7.75;;;27.40;39.00;;;;;;4974670;28;20271;-63
2022/05/15 08:30:44;;;;;;;16.95;7.45;;;27.40;39.00;;;;;;4974504;28;20196;-62
2022/05/15 08:33:11;;;;;;;16.48;7.53;;;27.40;39.00;;;;;;4973216;28;20771;-63
2022/05/15 08:35:38;;;;;;;16.42;7.28;;;27.40;38.80;;;;;;4973335;28;20198;-62
2022/05/15 08:38:06;;;;;;;17.10;7.60;;;27.40;38.70;;;;;;4974501;28;20531;-62
2022/05/15 08:40:41;;;;;;;17.27;7.35;;;27.40;38.60;;;;;;4973248;28;20228;-62
2022/05/15 08:43:10;;;;;;;12.52;6.82;;;27.40;38.60;;;;;;4972991;28;20632;-62
2022/05/15 08:45:44;;;;;;;13.98;6.75;;;27.40;38.60;;;;;;4974576;28;20185;-62
2022/05/15 08:48:12;;;;;;;16.38;7.53;;;27.50;38.70;;;;;;4974490;28;20252;-62
2022/05/15 08:50:43;;;;;;;15.52;7.10;;;27.50;38.70;;;;;;4974673;28;20217;-62
2022/05/15 08:53:15;;;;;;;13.15;6.43;;;27.50;38.70;;;;;;4974324;28;20213;-62
2022/05/15 08:55:43;;;;;;;15.52;7.25;;;27.50;38.60;;;;;;4974471;28;20184;-62
2022/05/15 08:58:12;;;;;;;12.90;6.90;;;27.50;38.50;;;;;;4973146;28;20524;-62
2022/05/15 09:00:41;;;;;;;13.55;6.40;;;27.50;38.50;;;;;;4974662;28;20189;-62
2022/05/15 09:03:17;;;;;;;11.95;6.57;;;27.50;38.60;;;;;;4973184;28;20599;-62
2022/05/15 09:05:50;;;;;;;12.95;5.85;;;27.50;38.60;;;;;;4974901;28;20204;-62
2022/05/15 09:08:39;;;;;;;13.70;6.25;;;27.50;38.60;;;;;;4973517;28;20328;-62
2022/05/15 09:11:09;;;;;;;12.23;6.35;;;27.50;38.60;;;;;;4956930;28;20296;-65
2022/05/15 09:13:39;;;;;;;12.23;6.32;;;27.50;38.60;;;;;;4979015;28;20221;-62
2022/05/15 09:16:08;;;;;;;13.00;6.25;;;27.50;38.70;;;;;;4974604;28;20189;-63
2022/05/15 09:18:37;;;;;;;12.05;6.45;;;27.40;38.70;;;;;;4976723;28;20197;-63
2022/05/15 09:21:08;;;;;;;13.85;6.60;;;27.40;38.70;;;;;;4977065;28;20201;-63
2022/05/15 09:23:39;;;;;;;12.98;6.57;;;27.50;38.70;;;;;;4976892;28;20220;-62
2022/05/15 09:26:15;;;;;;;12.07;5.80;;;27.40;38.70;;;;;;4978139;28;20228;-62
2022/05/15 09:28:43;;;;;;;11.57;6.07;;;27.40;38.60;;;;;;4978413;28;20655;-62
2022/05/15 09:31:21;;;;;;;15.30;6.32;;;27.40;39.30;;;;;;4978122;28;20194;-63
2022/05/15 09:33:51;;;;;;;9.48;5.65;;;27.40;38.80;;;;;;4976892;28;20589;-62
2022/05/15 09:36:24;;;;;;;11.95;6.13;;;27.40;39.00;;;;;;4976604;28;20213;-62
2022/05/15 09:39:08;;;;;;;9.80;5.78;;;27.30;38.90;;;;;;4978119;28;20280;-63
2022/05/15 09:44:25;;;;;;;8.73;5.90;;;27.30;38.90;;;;;;4977889;28;20272;-62
2022/05/15 09:47:22;;;;;;;10.63;5.85;;;27.20;38.90;;;;;;4977965;28;20669;-62
2022/05/15 09:49:50;;;;;;;10.95;6.00;;;27.20;39.00;;;;;;4977801;28;20231;-62
2022/05/15 09:52:19;;;;;;;10.27;6.13;;;27.20;39.20;;;;;;4977568;28;20194;-62
2022/05/15 09:54:48;;;;;;;10.73;5.55;;;27.20;39.30;;;;;;4976425;28;20713;-62
2022/05/15 09:57:18;;;;;;;10.85;5.72;;;27.10;39.40;;;;;;4976302;28;20209;-62
2022/05/15 09:59:53;;;;;;;11.15;5.40;;;27.10;39.50;;;;;;4976612;28;20208;-62
2022/05/15 10:02:22;;;;;;;8.02;5.32;;;27.10;39.60;;;;;;4976260;28;20225;-63
2022/05/15 10:04:50;;;;;;;12.18;6.25;;;27.00;39.60;;;;;;4977761;28;20277;-62
2022/05/15 10:07:30;;;;;;;11.52;5.85;;;27.00;39.70;;;;;;4976463;28;20633;-62
2022/05/15 10:10:10;;;;;;;8.35;5.30;;;27.00;39.70;;;;;;4977518;28;20197;-63
2022/05/15 10:12:37;;;;;;;9.95;5.20;;;27.00;39.80;;;;;;4977536;28;20213;-63
2022/05/15 10:15:07;;;;;;;10.63;5.38;;;26.90;39.80;;;;;;4976088;28;20268;-63
2022/05/15 10:17:34;;;;;;;11.55;5.45;;;26.90;40.00;;;;;;4976362;28;20288;-62
2022/05/15 10:20:05;;;;;;;9.13;5.35;;;26.90;40.00;;;;;;4977235;28;20280;-63
2022/05/15 10:22:35;;;;;;;11.10;5.75;;;26.80;40.00;;;;;;4977003;28;20549;-62
2022/05/15 10:25:10;;;;;;;9.50;5.28;;;26.80;40.10;;;;;;4977287;28;20190;-62
2022/05/15 10:27:38;;;;;;;9.13;5.40;;;26.80;40.20;;;;;;4976901;28;20620;-62
2022/05/15 10:30:09;;;;;;;7.88;5.10;;;26.80;40.30;;;;;;4976919;28;20559;-63
2022/05/15 10:32:39;;;;;;;9.63;5.57;;;26.70;40.30;;;;;;4977213;28;20622;-62
2022/05/15 10:35:07;;;;;;;9.40;4.93;;;26.70;40.40;;;;;;4976410;28;20221;-62
2022/05/15 10:37:48;;;;;;;7.78;5.05;;;26.70;40.50;;;;;;4976856;28;20196;-62
2022/05/15 10:40:26;;;;;;;8.50;5.05;;;26.60;40.50;;;;;;4976907;28;20186;-62
2022/05/15 10:43:02;;;;;;;7.53;5.10;;;26.60;40.60;;;;;;4975483;28;20221;-62
2022/05/15 10:45:34;;;;;;;6.07;4.53;;;26.60;40.80;;;;;;4975595;28;20260;-62
2022/05/15 10:48:06;;;;;;;8.38;5.47;;;26.50;40.70;;;;;;4976966;28;20182;-62
2022/05/15 10:50:40;;;;;;;7.88;4.97;;;26.50;40.80;;;;;;4976893;28;20260;-62
2022/05/15 10:59:09;;;;;;;8.45;4.80;;;26.40;41.20;;;;;;4976703;28;20200;-62
2022/05/15 11:01:41;;;;;;;8.05;4.80;;;26.40;41.30;;;;;;4976562;28;20178;-62
2022/05/15 11:04:10;;;;;;;8.38;4.82;;;26.30;41.40;;;;;;4976761;28;20210;-62
2022/05/15 11:06:52;;;;;;;7.78;4.90;;;26.30;41.40;;;;;;4976539;28;20193;-62
2022/05/15 11:09:22;;;;;;;8.88;5.00;;;26.20;41.40;;;;;;4975181;28;20198;-62
2022/05/15 11:11:59;;;;;;;7.45;5.07;;;26.20;41.40;;;;;;4975086;28;20197;-62
2022/05/15 11:14:28;;;;;;;7.18;4.57;;;26.20;41.60;;;;;;4976491;28;20249;-63
2022/05/15 11:17:02;;;;;;;9.32;5.35;;;26.20;42.30;;;;;;4976135;28;20196;-62
2022/05/15 11:19:35;;;;;;;7.82;4.53;;;26.10;41.70;;;;;;4976187;28;20185;-61
2022/05/15 11:22:07;;;;;;;7.55;4.47;;;26.10;41.80;;;;;;4976348;28;20182;-62
2022/05/15 11:24:42;;;;;;;8.77;4.82;;;26.10;41.80;;;;;;4974761;28;20221;-62
2022/05/15 11:27:18;;;;;;;7.60;4.93;;;26.10;42.00;;;;;;4974962;28;20644;-60
2022/05/15 11:29:47;;;;;;;6.20;4.40;;;26.10;42.00;;;;;;4975999;28;20272;-60
2022/05/15 11:32:32;;;;;;;6.97;4.93;;;26.10;42.10;;;;;;4974674;28;20202;-60
2022/05/15 11:35:22;;;;;;;6.85;4.53;;;26.10;42.10;;;;;;4976226;28;20567;-60
2022/05/15 11:37:55;;;;;;;9.05;4.72;;;26.00;42.10;;;;;;4974732;28;20198;-61
2022/05/15 11:40:34;;;;;;;7.47;5.07;;;26.00;42.20;;;;;;4975348;28;20697;-61
2022/05/15 11:43:17;;;;;;;7.93;4.97;;;26.00;42.20;;;;;;4974370;28;20224;-61
2022/05/15 11:45:49;;;;;;;7.95;4.95;;;26.00;42.30;;;;;;4962528;28;20206;-61
2022/05/15 11:48:20;;;;;;;7.43;4.70;;;26.00;42.30;;;;;;4976022;28;20174;-61
2022/05/15 11:50:56;;;;;;;6.53;4.65;;;26.00;42.40;;;;;;4975429;28;20190;-60
2022/05/15 11:53:29;;;;;;;6.85;4.38;;;25.90;42.30;;;;;;4975323;28;20240;-61
2022/05/15 11:55:56;;;;;;;6.70;4.50;;;25.90;42.50;;;;;;4973967;28;20222;-61
2022/05/15 11:58:34;;;;;;;8.57;4.55;;;25.90;42.40;;;;;;4974162;28;20202;-62
2022/05/15 12:01:04;;;;;;;6.03;4.30;;;25.90;42.50;;;;;;4975185;28;20229;-61
2022/05/15 12:03:52;;;;;;;7.75;4.60;;;25.90;42.70;;;;;;4974442;28;20213;-62
2022/05/15 12:06:22;;;;;;;6.15;4.35;;;25.80;42.80;;;;;;4973882;28;20252;-61
2022/05/15 12:09:14;;;;;;;6.32;4.72;;;25.80;42.90;;;;;;5003293;23;20240;-71
2022/05/15 12:11:41;;;;;;;6.90;4.40;;;25.70;43.00;;;;;;4993698;28;20197;-71
2022/05/15 12:14:33;;;;;;;7.22;4.38;;;25.70;43.80;;;;;;4993628;28;20217;-71
2022/05/15 12:17:01;;;;;;;7.60;4.50;;;25.70;43.20;;;;;;4994206;28;20197;-73
2022/05/15 12:19:29;;;;;;;6.13;4.30;;;25.70;43.20;;;;;;4982196;28;20228;-71
2022/05/15 12:21:58;;;;;;;7.55;4.28;;;25.60;43.30;;;;;;4974472;28;20204;-71
2022/05/15 12:24:29;;;;;;;7.65;4.32;;;25.60;43.30;;;;;;4975051;28;20277;-72
2022/05/15 12:27:11;;;;;;;6.50;4.22;;;25.60;43.30;;;;;;4974676;28;20186;-72
2022/05/15 12:29:56;;;;;;;6.47;4.45;;;25.60;43.40;;;;;;4975216;28;20214;-72
2022/05/15 12:32:29;;;;;;;8.95;4.80;;;25.60;43.40;;;;;;4975621;28;20582;-71
2022/05/15 12:34:55;;;;;;;4.97;4.13;;;25.60;43.50;;;;;;4974425;28;20218;-72
2022/05/15 12:37:24;;;;;;;7.00;4.05;;;25.60;43.60;;;;;;4975533;28;20273;-72
2022/05/15 12:39:53;;;;;;;6.97;4.20;;;25.60;43.60;;;;;;4976085;28;20214;-72
2022/05/15 12:42:22;;;;;;;7.07;4.32;;;25.60;43.60;;;;;;4974820;28;20580;-72
2022/05/15 12:45:03;;;;;;;6.47;4.18;;;25.50;43.60;;;;;;4975654;28;20191;-72
2022/05/15 12:47:32;;;;;;;5.25;3.90;;;25.50;43.70;;;;;;4974021;28;20213;-71
2022/05/15 12:50:03;;;;;;;5.57;3.78;;;25.60;43.70;;;;;;4973862;28;20225;-71
2022/05/15 12:52:33;;;;;;;5.82;4.10;;;25.50;43.70;;;;;;4973798;28;20681;-72
2022/05/15 12:55:02;;;;;;;5.65;3.95;;;25.50;43.80;;;;;;4973792;28;20217;-71
2022/05/15 12:57:29;;;;;;;6.07;4.20;;;25.50;43.80;;;;;;4973557;28;20682;-71
2022/05/15 12:59:56;;;;;;;5.75;4.00;;;25.50;43.90;;;;;;4975107;28;20256;-71
2022/05/15 13:02:31;;;;;;;7.18;4.72;;;25.50;43.90;;;;;;4973831;28;20204;-71
2022/05/15 13:05:00;;;;;;;5.72;3.90;;;25.50;44.00;;;;;;4973670;28;20536;-71
2022/05/15 13:07:29;;;;;;;5.15;3.90;;;25.50;44.00;;;;;;4973397;28;20208;-71
2022/05/15 13:09:57;;;;;;;6.32;4.35;;;25.50;44.00;;;;;;4974422;28;20280;-71
2022/05/15 13:12:26;;;;;;;5.53;3.90;;;25.50;44.10;;;;;;4973137;28;20334;-71
2022/05/15 13:14:53;;;;;;;6.30;4.03;;;25.40;44.00;;;;;;4973319;28;20214;-72
2022/05/15 13:17:23;;;;;;;6.00;4.40;;;25.40;44.00;;;;;;4973421;28;20244;-71
2022/05/15 13:19:53;;;;;;;5.97;4.07;;;25.40;44.20;;;;;;4973406;28;20317;-71
2022/05/15 13:22:22;;;;;;;5.78;4.00;;;25.40;44.20;;;;;;4973242;28;20221;-71
2022/05/15 13:24:49;;;;;;;5.70;4.15;;;25.40;44.20;;;;;;4974963;28;20557;-71
2022/05/15 13:27:16;;;;;;;5.35;3.80;;;25.40;44.10;;;;;;4973202;28;20257;-71